sensor_id;sensor_type;location;lat;lon;timestamp;pressure;altitude;pressure_sealevel;temperature;humidity
73297;BME280;61524;50.938;11.396;2022-07-17T00:01:55;100013.72;;;7.28;78.39
73297;BME280;61524;50.938;11.396;2022-07-17T00:04:20;100024.13;;;7.23;79.18
73297;BME280;61524;50.938;11.396;2022-07-17T00:06:46;100007.38;;;7.29;78.82
73297;BME280;61524;50.938;11.396;2022-07-17T00:09:11;100011.03;;;7.15;79.46
73297;BME280;61524;50.938;11.396;2022-07-17T00:11:37;100007.91;;;7.04;79.00
73297;BME280;61524;50.938;11.396;2022-07-17T00:14:02;100008.53;;;7.00;79.83
73297;BME280;61524;50.938;11.396;2022-07-17T00:16:28;100002.22;;;7.07;80.07
73297;BME280;61524;50.938;11.396;2022-07-17T00:18:53;100004.84;;;6.94;79.52
73297;BME280;61524;50.938;11.396;2022-07-17T00:21:19;100007.91;;;6.98;79.81
73297;BME280;61524;50.938;11.396;2022-07-17T00:23:44;100008.31;;;6.95;80.06
73297;BME280;61524;50.938;11.396;2022-07-17T00:26:10;100017.09;;;6.95;79.81
73297;BME280;61524;50.938;11.396;2022-07-17T00:28:35;100012.38;;;6.91;79.91
73297;BME280;61524;50.938;11.396;2022-07-17T00:31:01;100016.88;;;6.90;80.67
73297;BME280;61524;50.938;11.396;2022-07-17T00:33:26;100011.91;;;6.74;80.01
73297;BME280;61524;50.938;11.396;2022-07-17T00:35:52;100018.84;;;6.75;80.75
73297;BME280;61524;50.938;11.396;2022-07-17T00:38:17;100010.19;;;6.60;80.96
73297;BME280;61524;50.938;11.396;2022-07-17T00:40:44;100015.84;;;6.50;80.39
73297;BME280;61524;50.938;11.396;2022-07-17T00:43:10;100009.75;;;6.56;81.43
73297;BME280;61524;50.938;11.396;2022-07-17T00:45:35;100005.81;;;6.45;82.11
73297;BME280;61524;50.938;11.396;2022-07-17T00:48:04;100008.09;;;6.48;81.71
73297;BME280;61524;50.938;11.396;2022-07-17T00:50:40;100013.16;;;6.43;81.77
73297;BME280;61524;50.938;11.396;2022-07-17T00:53:07;100019.50;;;6.42;81.80
73297;BME280;61524;50.938;11.396;2022-07-17T00:55:33;100005.16;;;6.37;82.02
73297;BME280;61524;50.938;11.396;2022-07-17T00:58:01;100001.47;;;6.31;82.24
73297;BME280;61524;50.938;11.396;2022-07-17T01:00:28;100018.22;;;6.31;82.35
73297;BME280;61524;50.938;11.396;2022-07-17T01:02:54;100014.50;;;6.26;81.69
73297;BME280;61524;50.938;11.396;2022-07-17T01:05:21;100016.38;;;6.32;82.10
73297;BME280;61524;50.938;11.396;2022-07-17T01:07:47;100021.69;;;6.32;82.21
73297;BME280;61524;50.938;11.396;2022-07-17T01:10:14;100014.06;;;6.22;81.85
73297;BME280;61524;50.938;11.396;2022-07-17T01:12:42;100009.91;;;6.13;82.39
73297;BME280;61524;50.938;11.396;2022-07-17T01:15:09;100019.66;;;6.06;81.48
73297;BME280;61524;50.938;11.396;2022-07-17T01:17:35;100006.78;;;6.03;81.93
73297;BME280;61524;50.938;11.396;2022-07-17T01:20:04;100009.00;;;5.99;82.72
73297;BME280;61524;50.938;11.396;2022-07-17T01:22:31;100021.66;;;5.97;83.15
73297;BME280;61524;50.938;11.396;2022-07-17T01:24:56;100011.91;;;6.04;82.65
73297;BME280;61524;50.938;11.396;2022-07-17T01:27:22;100009.81;;;6.00;82.64
73297;BME280;61524;50.938;11.396;2022-07-17T01:29:47;100006.09;;;5.94;83.10
73297;BME280;61524;50.938;11.396;2022-07-17T01:32:13;100039.75;;;5.94;83.42
73297;BME280;61524;50.938;11.396;2022-07-17T01:34:38;100019.75;;;5.91;82.76
73297;BME280;61524;50.938;11.396;2022-07-17T01:37:04;100021.53;;;5.91;82.58
73297;BME280;61524;50.938;11.396;2022-07-17T01:39:29;100014.81;;;5.88;82.76
73297;BME280;61524;50.938;11.396;2022-07-17T01:42:13;100020.31;;;5.87;83.42
73297;BME280;61524;50.938;11.396;2022-07-17T01:44:39;100006.34;;;5.78;83.23
73297;BME280;61524;50.938;11.396;2022-07-17T01:47:04;100003.09;;;5.76;83.53
73297;BME280;61524;50.938;11.396;2022-07-17T01:49:30;100009.00;;;5.78;83.23
73297;BME280;61524;50.938;11.396;2022-07-17T01:51:55;100008.97;;;5.71;83.46
73297;BME280;61524;50.938;11.396;2022-07-17T01:54:26;100009.06;;;5.63;83.69
73297;BME280;61524;50.938;11.396;2022-07-17T01:56:52;100009.53;;;5.67;83.42
73297;BME280;61524;50.938;11.396;2022-07-17T01:59:17;100012.84;;;5.54;83.95
73297;BME280;61524;50.938;11.396;2022-07-17T02:01:42;100011.66;;;5.57;83.69
73297;BME280;61524;50.938;11.396;2022-07-17T02:04:08;100005.00;;;5.61;82.98
73297;BME280;61524;50.938;11.396;2022-07-17T02:06:33;100007.00;;;5.59;83.72
73297;BME280;61524;50.938;11.396;2022-07-17T02:08:59;100006.38;;;5.57;84.45
73297;BME280;61524;50.938;11.396;2022-07-17T02:11:24;100006.06;;;5.45;83.86
73297;BME280;61524;50.938;11.396;2022-07-17T02:13:50;100008.50;;;5.46;83.75
73297;BME280;61524;50.938;11.396;2022-07-17T02:16:15;100003.22;;;5.46;83.53
73297;BME280;61524;50.938;11.396;2022-07-17T02:18:41;100001.31;;;5.40;83.70
73297;BME280;61524;50.938;11.396;2022-07-17T02:21:06;100005.16;;;5.38;84.54
73297;BME280;61524;50.938;11.396;2022-07-17T02:23:32;99997.22;;;5.38;85.33
73297;BME280;61524;50.938;11.396;2022-07-17T02:25:57;99998.66;;;5.40;84.29
73297;BME280;61524;50.938;11.396;2022-07-17T02:28:23;99994.19;;;5.41;84.63
73297;BME280;61524;50.938;11.396;2022-07-17T02:30:48;99992.91;;;5.37;85.27
73297;BME280;61524;50.938;11.396;2022-07-17T02:33:14;100022.53;;;5.40;84.38
73297;BME280;61524;50.938;11.396;2022-07-17T02:35:40;100021.31;;;5.43;83.35
73297;BME280;61524;50.938;11.396;2022-07-17T02:38:05;100010.84;;;5.35;84.61
73297;BME280;61524;50.938;11.396;2022-07-17T02:40:31;100011.03;;;5.33;84.90
73297;BME280;61524;50.938;11.396;2022-07-17T02:42:56;100033.16;;;5.25;85.09
73297;BME280;61524;50.938;11.396;2022-07-17T02:45:22;100014.50;;;5.34;84.46
73297;BME280;61524;50.938;11.396;2022-07-17T02:47:50;100033.97;;;5.26;84.75
73297;BME280;61524;50.938;11.396;2022-07-17T02:50:16;100037.56;;;5.18;85.58
73297;BME280;61524;50.938;11.396;2022-07-17T02:52:41;100018.97;;;5.12;85.53
73297;BME280;61524;50.938;11.396;2022-07-17T02:55:09;100058.97;;;5.17;84.47
73297;BME280;61524;50.938;11.396;2022-07-17T02:57:36;100039.91;;;5.07;84.81
73297;BME280;61524;50.938;11.396;2022-07-17T03:00:04;100047.13;;;4.98;84.67
73297;BME280;61524;50.938;11.396;2022-07-17T03:02:30;100060.09;;;4.93;85.44
73297;BME280;61524;50.938;11.396;2022-07-17T03:04:55;100052.59;;;4.96;85.46
73297;BME280;61524;50.938;11.396;2022-07-17T03:07:22;100067.47;;;4.97;85.58
73297;BME280;61524;50.938;11.396;2022-07-17T03:09:47;100093.75;;;4.99;85.73
73297;BME280;61524;50.938;11.396;2022-07-17T03:12:13;100094.59;;;4.99;85.13
73297;BME280;61524;50.938;11.396;2022-07-17T03:14:38;100094.88;;;4.90;85.06
73297;BME280;61524;50.938;11.396;2022-07-17T03:17:03;100090.41;;;4.90;85.46
73297;BME280;61524;50.938;11.396;2022-07-17T03:19:29;100103.72;;;4.97;85.69
73297;BME280;61524;50.938;11.396;2022-07-17T03:21:54;100108.28;;;4.88;86.20
73297;BME280;61524;50.938;11.396;2022-07-17T03:24:20;100091.50;;;4.81;85.78
73297;BME280;61524;50.938;11.396;2022-07-17T03:26:45;100100.72;;;4.85;85.68
73297;BME280;61524;50.938;11.396;2022-07-17T03:29:11;100110.31;;;4.71;86.03
73297;BME280;61524;50.938;11.396;2022-07-17T03:31:36;100120.34;;;4.76;86.39
73297;BME280;61524;50.938;11.396;2022-07-17T03:34:02;100123.56;;;4.86;85.48
73297;BME280;61524;50.938;11.396;2022-07-17T03:36:27;100115.34;;;4.96;85.92
73297;BME280;61524;50.938;11.396;2022-07-17T03:38:52;100112.78;;;5.03;85.35
73297;BME280;61524;50.938;11.396;2022-07-17T03:41:18;100120.63;;;4.96;85.77
73297;BME280;61524;50.938;11.396;2022-07-17T03:43:43;100135.69;;;4.95;85.79
73297;BME280;61524;50.938;11.396;2022-07-17T03:46:09;100121.53;;;4.88;85.81
73297;BME280;61524;50.938;11.396;2022-07-17T03:48:34;100119.34;;;5.07;85.25
73297;BME280;61524;50.938;11.396;2022-07-17T03:51:01;100110.75;;;5.05;85.27
73297;BME280;61524;50.938;11.396;2022-07-17T03:53:27;100129.81;;;5.15;85.45
73297;BME280;61524;50.938;11.396;2022-07-17T03:55:52;100121.53;;;5.18;84.81
73297;BME280;61524;50.938;11.396;2022-07-17T03:58:18;100119.88;;;5.17;86.23
73297;BME280;61524;50.938;11.396;2022-07-17T04:00:43;100107.81;;;5.14;85.94
73297;BME280;61524;50.938;11.396;2022-07-17T04:03:09;100113.75;;;5.16;85.47
73297;BME280;61524;50.938;11.396;2022-07-17T04:05:34;100119.97;;;5.23;85.15
73297;BME280;61524;50.938;11.396;2022-07-17T04:08:00;100126.16;;;5.31;84.83
73297;BME280;61524;50.938;11.396;2022-07-17T04:10:25;100133.81;;;5.40;85.49
73297;BME280;61524;50.938;11.396;2022-07-17T04:12:50;100131.97;;;5.56;84.65
73297;BME280;61524;50.938;11.396;2022-07-17T04:15:16;100126.06;;;6.18;83.13
73297;BME280;61524;50.938;11.396;2022-07-17T04:18:01;100146.06;;;7.04;79.37
73297;BME280;61524;50.938;11.396;2022-07-17T04:20:27;100147.44;;;7.83;77.27
73297;BME280;61524;50.938;11.396;2022-07-17T04:22:54;100155.25;;;7.98;75.85
73297;BME280;61524;50.938;11.396;2022-07-17T04:25:19;100168.44;;;8.52;73.53
73297;BME280;61524;50.938;11.396;2022-07-17T04:27:45;100178.19;;;9.11;71.80
73297;BME280;61524;50.938;11.396;2022-07-17T04:30:10;100181.94;;;9.55;70.44
73297;BME280;61524;50.938;11.396;2022-07-17T04:32:36;100193.69;;;9.92;68.34
73297;BME280;61524;50.938;11.396;2022-07-17T04:35:02;100181.50;;;10.03;67.59
73297;BME280;61524;50.938;11.396;2022-07-17T04:37:27;100179.09;;;9.50;69.96
73297;BME280;61524;50.938;11.396;2022-07-17T04:39:53;100175.59;;;9.50;70.81
73297;BME280;61524;50.938;11.396;2022-07-17T04:42:18;100189.69;;;9.70;70.24
73297;BME280;61524;50.938;11.396;2022-07-17T04:44:44;100192.88;;;9.47;70.80
73297;BME280;61524;50.938;11.396;2022-07-17T04:47:09;100193.28;;;9.44;71.92
73297;BME280;61524;50.938;11.396;2022-07-17T04:49:34;100214.97;;;10.44;68.11
73297;BME280;61524;50.938;11.396;2022-07-17T04:52:00;100213.44;;;11.04;66.38
73297;BME280;61524;50.938;11.396;2022-07-17T04:54:25;100239.38;;;11.77;64.73
73297;BME280;61524;50.938;11.396;2022-07-17T04:56:51;100243.63;;;12.33;63.17
73297;BME280;61524;50.938;11.396;2022-07-17T04:59:16;100238.13;;;12.70;61.24
73297;BME280;61524;50.938;11.396;2022-07-17T05:01:42;100244.78;;;12.91;60.01
73297;BME280;61524;50.938;11.396;2022-07-17T05:04:07;100246.91;;;13.48;59.53
73297;BME280;61524;50.938;11.396;2022-07-17T05:06:33;100259.25;;;13.72;58.44
73297;BME280;61524;50.938;11.396;2022-07-17T05:08:58;100256.53;;;13.84;58.10
73297;BME280;61524;50.938;11.396;2022-07-17T05:11:23;100259.16;;;14.07;57.22
73297;BME280;61524;50.938;11.396;2022-07-17T05:13:49;100272.44;;;14.71;56.13
73297;BME280;61524;50.938;11.396;2022-07-17T05:16:14;100279.88;;;14.81;56.35
73297;BME280;61524;50.938;11.396;2022-07-17T05:18:40;100284.91;;;15.11;55.95
73297;BME280;61524;50.938;11.396;2022-07-17T05:21:05;100280.84;;;15.08;55.45
73297;BME280;61524;50.938;11.396;2022-07-17T05:23:31;100291.91;;;15.45;54.26
73297;BME280;61524;50.938;11.396;2022-07-17T05:25:57;100275.06;;;15.72;53.04
73297;BME280;61524;50.938;11.396;2022-07-17T05:28:22;100290.50;;;15.98;53.32
73297;BME280;61524;50.938;11.396;2022-07-17T05:30:48;100278.94;;;16.03;52.64
73297;BME280;61524;50.938;11.396;2022-07-17T05:33:13;100293.34;;;16.14;52.02
73297;BME280;61524;50.938;11.396;2022-07-17T05:35:38;100285.53;;;16.39;51.92
73297;BME280;61524;50.938;11.396;2022-07-17T05:38:04;100294.28;;;16.51;51.52
73297;BME280;61524;50.938;11.396;2022-07-17T05:40:30;100289.84;;;16.40;52.23
73297;BME280;61524;50.938;11.396;2022-07-17T05:42:56;100292.75;;;16.88;50.95
73297;BME280;61524;50.938;11.396;2022-07-17T05:45:21;100298.38;;;16.81;50.95
73297;BME280;61524;50.938;11.396;2022-07-17T05:47:47;100240.03;;;15.72;53.20
73297;BME280;61524;50.938;11.396;2022-07-17T05:50:12;100249.19;;;15.93;53.22
73297;BME280;61524;50.938;11.396;2022-07-17T05:52:38;100282.06;;;16.44;52.18
73297;BME280;61524;50.938;11.396;2022-07-17T05:55:03;100289.63;;;17.33;50.26
73297;BME280;61524;50.938;11.396;2022-07-17T05:57:29;100299.59;;;17.75;49.96
73297;BME280;61524;50.938;11.396;2022-07-17T05:59:54;100314.84;;;18.74;46.12
73297;BME280;61524;50.938;11.396;2022-07-17T06:02:20;100296.97;;;18.73;47.57
73297;BME280;61524;50.938;11.396;2022-07-17T06:04:45;100288.03;;;18.73;46.33
73297;BME280;61524;50.938;11.396;2022-07-17T06:07:11;100276.38;;;18.72;46.33
73297;BME280;61524;50.938;11.396;2022-07-17T06:09:36;100295.88;;;18.90;46.92
73297;BME280;61524;50.938;11.396;2022-07-17T06:12:02;100283.38;;;18.63;47.19
73297;BME280;61524;50.938;11.396;2022-07-17T06:14:28;100290.47;;;19.00;47.33
73297;BME280;61524;50.938;11.396;2022-07-17T06:16:53;100291.22;;;19.61;45.38
73297;BME280;61524;50.938;11.396;2022-07-17T06:19:19;100281.22;;;19.31;45.49
73297;BME280;61524;50.938;11.396;2022-07-17T06:21:44;100284.16;;;19.50;45.31
73297;BME280;61524;50.938;11.396;2022-07-17T06:24:10;100281.59;;;19.95;43.33
73297;BME280;61524;50.938;11.396;2022-07-17T06:26:35;100277.34;;;19.58;42.51
73297;BME280;61524;50.938;11.396;2022-07-17T06:29:00;100271.94;;;19.53;44.01
73297;BME280;61524;50.938;11.396;2022-07-17T06:31:26;100286.41;;;20.13;42.61
73297;BME280;61524;50.938;11.396;2022-07-17T06:33:53;100290.38;;;20.31;41.31
73297;BME280;61524;50.938;11.396;2022-07-17T06:36:18;100279.47;;;19.91;41.56
73297;BME280;61524;50.938;11.396;2022-07-17T06:38:44;100286.19;;;19.99;42.16
73297;BME280;61524;50.938;11.396;2022-07-17T06:41:10;100295.09;;;20.15;42.12
73297;BME280;61524;50.938;11.396;2022-07-17T06:43:35;100321.16;;;21.05;38.71
73297;BME280;61524;50.938;11.396;2022-07-17T06:46:01;100312.97;;;20.70;40.09
73297;BME280;61524;50.938;11.396;2022-07-17T06:48:26;100297.28;;;20.13;40.57
73297;BME280;61524;50.938;11.396;2022-07-17T06:50:51;100310.03;;;20.67;40.01
73297;BME280;61524;50.938;11.396;2022-07-17T06:53:17;100305.50;;;20.86;39.15
73297;BME280;61524;50.938;11.396;2022-07-17T06:55:43;100319.06;;;21.26;38.12
73297;BME280;61524;50.938;11.396;2022-07-17T06:58:08;100317.81;;;21.13;38.55
73297;BME280;61524;50.938;11.396;2022-07-17T07:00:34;100335.13;;;21.80;37.48
73297;BME280;61524;50.938;11.396;2022-07-17T07:03:00;100342.66;;;22.74;34.89
73297;BME280;61524;50.938;11.396;2022-07-17T07:05:25;100335.22;;;22.61;35.44
73297;BME280;61524;50.938;11.396;2022-07-17T07:07:51;100335.63;;;22.49;36.64
73297;BME280;61524;50.938;11.396;2022-07-17T07:10:16;100362.59;;;23.72;34.15
73297;BME280;61524;50.938;11.396;2022-07-17T07:12:42;100354.81;;;23.93;33.68
73297;BME280;61524;50.938;11.396;2022-07-17T07:15:08;100338.44;;;23.93;33.32
73297;BME280;61524;50.938;11.396;2022-07-17T07:17:34;100312.88;;;22.96;34.97
73297;BME280;61524;50.938;11.396;2022-07-17T07:20:04;100304.91;;;22.81;35.13
73297;BME280;61524;50.938;11.396;2022-07-17T07:22:30;100289.34;;;22.30;36.19
73297;BME280;61524;50.938;11.396;2022-07-17T07:24:56;100296.47;;;22.64;35.80
73297;BME280;61524;50.938;11.396;2022-07-17T07:27:21;100291.84;;;22.64;36.06
73297;BME280;61524;50.938;11.396;2022-07-17T07:29:47;100289.34;;;23.19;35.34
73297;BME280;61524;50.938;11.396;2022-07-17T07:32:13;100293.25;;;23.13;35.10
73297;BME280;61524;50.938;11.396;2022-07-17T07:34:38;100312.47;;;23.82;33.22
73297;BME280;61524;50.938;11.396;2022-07-17T07:37:04;100294.59;;;23.29;34.03
73297;BME280;61524;50.938;11.396;2022-07-17T07:39:29;100288.13;;;23.25;34.45
73297;BME280;61524;50.938;11.396;2022-07-17T07:41:54;100271.59;;;22.89;35.08
73297;BME280;61524;50.938;11.396;2022-07-17T07:44:20;100278.63;;;23.09;35.03
73297;BME280;61524;50.938;11.396;2022-07-17T07:46:45;100289.22;;;23.71;34.29
73297;BME280;61524;50.938;11.396;2022-07-17T07:49:11;100272.63;;;23.95;33.40
73297;BME280;61524;50.938;11.396;2022-07-17T07:51:36;100261.16;;;23.51;33.05
73297;BME280;61524;50.938;11.396;2022-07-17T07:54:02;100266.94;;;23.50;34.40
73297;BME280;61524;50.938;11.396;2022-07-17T07:56:27;100266.81;;;24.10;32.95
73297;BME280;61524;50.938;11.396;2022-07-17T07:58:53;100256.25;;;23.95;33.92
73297;BME280;61524;50.938;11.396;2022-07-17T08:01:18;100251.41;;;23.92;34.19
73297;BME280;61524;50.938;11.396;2022-07-17T08:03:44;100249.19;;;23.80;32.54
73297;BME280;61524;50.938;11.396;2022-07-17T08:06:09;100236.84;;;23.82;32.98
73297;BME280;61524;50.938;11.396;2022-07-17T08:08:35;100231.81;;;22.69;33.58
73297;BME280;61524;50.938;11.396;2022-07-17T08:11:00;100249.44;;;22.58;34.49
73297;BME280;61524;50.938;11.396;2022-07-17T08:13:26;100239.59;;;22.95;35.42
73297;BME280;61524;50.938;11.396;2022-07-17T08:15:52;100235.22;;;22.61;35.51
73297;BME280;61524;50.938;11.396;2022-07-17T08:18:17;100223.03;;;22.21;37.13
73297;BME280;61524;50.938;11.396;2022-07-17T08:20:43;100221.94;;;21.79;37.03
73297;BME280;61524;50.938;11.396;2022-07-17T08:23:08;100209.13;;;21.37;36.64
73297;BME280;61524;50.938;11.396;2022-07-17T08:25:34;100233.72;;;22.17;35.62
73297;BME280;61524;50.938;11.396;2022-07-17T08:28:00;100218.88;;;21.62;36.70
73297;BME280;61524;50.938;11.396;2022-07-17T08:30:26;100229.88;;;21.52;36.31
73297;BME280;61524;50.938;11.396;2022-07-17T08:32:52;100232.69;;;21.89;36.62
73297;BME280;61524;50.938;11.396;2022-07-17T08:35:17;100226.16;;;21.47;35.69
73297;BME280;61524;50.938;11.396;2022-07-17T08:37:47;100232.66;;;21.70;35.21
73297;BME280;61524;50.938;11.396;2022-07-17T08:40:23;100229.94;;;21.46;34.95
73297;BME280;61524;50.938;11.396;2022-07-17T08:42:50;100233.25;;;21.43;36.62
73297;BME280;61524;50.938;11.396;2022-07-17T08:45:16;100236.28;;;21.85;34.58
73297;BME280;61524;50.938;11.396;2022-07-17T08:47:42;100221.09;;;21.36;35.88
73297;BME280;61524;50.938;11.396;2022-07-17T08:50:10;100221.66;;;21.57;36.10
73297;BME280;61524;50.938;11.396;2022-07-17T08:52:40;100213.00;;;21.31;36.04
73297;BME280;61524;50.938;11.396;2022-07-17T08:55:11;100204.66;;;20.93;36.29
73297;BME280;61524;50.938;11.396;2022-07-17T08:57:41;100217.81;;;21.39;35.59
73297;BME280;61524;50.938;11.396;2022-07-17T09:00:12;100210.16;;;21.41;36.81
73297;BME280;61524;50.938;11.396;2022-07-17T09:02:39;100204.19;;;21.15;35.86
73297;BME280;61524;50.938;11.396;2022-07-17T09:05:05;100211.59;;;21.57;36.10
73297;BME280;61524;50.938;11.396;2022-07-17T09:07:31;100208.19;;;21.46;36.45
73297;BME280;61524;50.938;11.396;2022-07-17T09:09:57;100200.63;;;21.43;35.15
73297;BME280;61524;50.938;11.396;2022-07-17T09:12:27;100228.66;;;22.06;34.87
73297;BME280;61524;50.938;11.396;2022-07-17T09:14:54;100213.63;;;21.89;35.45
73297;BME280;61524;50.938;11.396;2022-07-17T09:17:19;100206.56;;;21.69;35.31
73297;BME280;61524;50.938;11.396;2022-07-17T09:19:45;100205.53;;;21.65;34.82
73297;BME280;61524;50.938;11.396;2022-07-17T09:24:55;100192.03;;;21.07;35.21
73297;BME280;61524;50.938;11.396;2022-07-17T09:32:39;100185.16;;;21.15;34.94
73297;BME280;61524;50.938;11.396;2022-07-17T09:35:08;100183.13;;;21.26;35.29
73297;BME280;61524;50.938;11.396;2022-07-17T09:37:35;100175.50;;;20.98;35.46
73297;BME280;61524;50.938;11.396;2022-07-17T09:40:08;100181.75;;;21.04;36.08
73297;BME280;61524;50.938;11.396;2022-07-17T09:42:33;100194.25;;;21.53;35.38
73297;BME280;61524;50.938;11.396;2022-07-17T09:45:03;100182.84;;;21.75;35.17
73297;BME280;61524;50.938;11.396;2022-07-17T09:47:31;100194.59;;;21.70;34.66
73297;BME280;61524;50.938;11.396;2022-07-17T09:49:58;100190.81;;;21.66;34.11
73297;BME280;61524;50.938;11.396;2022-07-17T09:52:26;100172.59;;;21.19;34.63
73297;BME280;61524;50.938;11.396;2022-07-17T09:54:53;100193.53;;;21.66;34.52
73297;BME280;61524;50.938;11.396;2022-07-17T09:57:28;100201.25;;;22.40;33.77
73297;BME280;61524;50.938;11.396;2022-07-17T09:59:55;100189.09;;;22.32;33.57
73297;BME280;61524;50.938;11.396;2022-07-17T10:02:21;100196.69;;;22.16;31.71
73297;BME280;61524;50.938;11.396;2022-07-17T10:04:48;100199.56;;;22.25;32.27
73297;BME280;61524;50.938;11.396;2022-07-17T10:07:14;100184.97;;;21.97;31.27
73297;BME280;61524;50.938;11.396;2022-07-17T10:09:40;100189.91;;;22.33;30.72
73297;BME280;61524;50.938;11.396;2022-07-17T10:12:07;100192.03;;;22.17;29.87
73297;BME280;61524;50.938;11.396;2022-07-17T10:14:32;100189.31;;;21.98;29.86
73297;BME280;61524;50.938;11.396;2022-07-17T10:17:12;100199.53;;;22.06;30.06
73297;BME280;61524;50.938;11.396;2022-07-17T10:19:48;100170.66;;;21.67;30.44
73297;BME280;61524;50.938;11.396;2022-07-17T10:22:15;100193.00;;;22.07;28.84
73297;BME280;61524;50.938;11.396;2022-07-17T10:24:46;100193.59;;;22.23;28.41
73297;BME280;61524;50.938;11.396;2022-07-17T10:27:22;100187.94;;;22.19;27.29
73297;BME280;61524;50.938;11.396;2022-07-17T10:30:08;100198.59;;;22.35;29.15
73297;BME280;61524;50.938;11.396;2022-07-17T10:32:35;100195.56;;;22.36;28.83
73297;BME280;61524;50.938;11.396;2022-07-17T10:35:09;100183.63;;;21.75;29.88
73297;BME280;61524;50.938;11.396;2022-07-17T10:45:21;100174.03;;;22.53;27.81
73297;BME280;61524;50.938;11.396;2022-07-17T10:50:42;100182.34;;;22.62;26.27
73297;BME280;61524;50.938;11.396;2022-07-17T10:55:44;100172.25;;;21.92;25.30
73297;BME280;61524;50.938;11.396;2022-07-17T10:58:24;100154.88;;;22.07;26.17
73297;BME280;61524;50.938;11.396;2022-07-17T11:03:25;100168.81;;;22.57;26.63
73297;BME280;61524;50.938;11.396;2022-07-17T11:05:51;100170.75;;;22.70;27.21
73297;BME280;61524;50.938;11.396;2022-07-17T11:08:16;100182.03;;;22.96;27.92
73297;BME280;61524;50.938;11.396;2022-07-17T11:10:42;100174.28;;;23.03;27.95
73297;BME280;61524;50.938;11.396;2022-07-17T11:13:11;100162.56;;;22.89;28.08
73297;BME280;61524;50.938;11.396;2022-07-17T11:15:42;100155.41;;;22.61;27.95
73297;BME280;61524;50.938;11.396;2022-07-17T11:18:25;100154.41;;;22.70;27.38
73297;BME280;61524;50.938;11.396;2022-07-17T11:20:57;100166.50;;;23.11;26.90
73297;BME280;61524;50.938;11.396;2022-07-17T11:23:25;100152.75;;;23.02;27.45
73297;BME280;61524;50.938;11.396;2022-07-17T11:28:30;100161.06;;;23.52;28.36
73297;BME280;61524;50.938;11.396;2022-07-17T11:30:56;100159.41;;;23.51;27.68
73297;BME280;61524;50.938;11.396;2022-07-17T11:33:21;100145.69;;;23.28;26.90
73297;BME280;61524;50.938;11.396;2022-07-17T11:35:47;100145.59;;;23.47;27.07
73297;BME280;61524;50.938;11.396;2022-07-17T11:38:13;100132.28;;;23.04;27.68
73297;BME280;61524;50.938;11.396;2022-07-17T11:40:48;100139.38;;;23.19;26.58
73297;BME280;61524;50.938;11.396;2022-07-17T11:43:14;100132.19;;;23.10;25.87
73297;BME280;61524;50.938;11.396;2022-07-17T11:45:39;100137.63;;;23.37;26.08
73297;BME280;61524;50.938;11.396;2022-07-17T11:48:06;100145.19;;;23.40;26.66
73297;BME280;61524;50.938;11.396;2022-07-17T11:50:31;100134.47;;;23.44;26.85
73297;BME280;61524;50.938;11.396;2022-07-17T11:53:01;100147.09;;;23.53;26.97
73297;BME280;61524;50.938;11.396;2022-07-17T11:55:37;100131.66;;;23.63;26.60
73297;BME280;61524;50.938;11.396;2022-07-17T11:58:03;100111.38;;;23.27;27.65
73297;BME280;61524;50.938;11.396;2022-07-17T12:00:29;100120.56;;;23.31;27.24
73297;BME280;61524;50.938;11.396;2022-07-17T12:03:03;100109.06;;;23.21;27.72
73297;BME280;61524;50.938;11.396;2022-07-17T12:05:31;100102.56;;;23.44;26.34
73297;BME280;61524;50.938;11.396;2022-07-17T12:07:57;100122.66;;;23.98;27.12
73297;BME280;61524;50.938;11.396;2022-07-17T12:10:26;100136.47;;;24.38;26.70
73297;BME280;61524;50.938;11.396;2022-07-17T12:15:40;100120.91;;;24.02;24.48
73297;BME280;61524;50.938;11.396;2022-07-17T12:18:18;100099.72;;;23.63;24.99
73297;BME280;61524;50.938;11.396;2022-07-17T12:20:46;100105.31;;;23.80;23.46
73297;BME280;61524;50.938;11.396;2022-07-17T12:23:31;100104.06;;;23.64;23.65
73297;BME280;61524;50.938;11.396;2022-07-17T12:26:07;100106.94;;;23.81;25.33
73297;BME280;61524;50.938;11.396;2022-07-17T12:28:34;100110.91;;;23.98;22.78
73297;BME280;61524;50.938;11.396;2022-07-17T12:31:00;100111.25;;;23.96;22.39
73297;BME280;61524;50.938;11.396;2022-07-17T12:33:25;100111.13;;;24.01;23.04
73297;BME280;61524;50.938;11.396;2022-07-17T12:35:51;100109.63;;;24.18;23.69
73297;BME280;61524;50.938;11.396;2022-07-17T12:38:16;100112.66;;;23.94;23.50
73297;BME280;61524;50.938;11.396;2022-07-17T12:40:42;100105.22;;;23.86;22.33
73297;BME280;61524;50.938;11.396;2022-07-17T12:43:10;100096.66;;;24.01;22.98
73297;BME280;61524;50.938;11.396;2022-07-17T12:45:36;100106.34;;;24.07;21.06
73297;BME280;61524;50.938;11.396;2022-07-17T12:48:01;100106.69;;;24.14;20.86
73297;BME280;61524;50.938;11.396;2022-07-17T12:50:27;100100.88;;;24.07;22.70
73297;BME280;61524;50.938;11.396;2022-07-17T12:52:53;100092.66;;;24.29;23.50
73297;BME280;61524;50.938;11.396;2022-07-17T12:55:18;100084.25;;;24.17;23.53
73297;BME280;61524;50.938;11.396;2022-07-17T12:57:44;100095.50;;;24.38;21.99
73297;BME280;61524;50.938;11.396;2022-07-17T13:00:10;100086.34;;;24.20;22.54
73297;BME280;61524;50.938;11.396;2022-07-17T13:02:35;100080.19;;;24.15;22.92
73297;BME280;61524;50.938;11.396;2022-07-17T13:05:01;100080.06;;;24.20;23.38
73297;BME280;61524;50.938;11.396;2022-07-17T13:07:27;100078.19;;;24.51;22.76
73297;BME280;61524;50.938;11.396;2022-07-17T13:09:53;100089.72;;;24.79;21.50